createdAt,value
2022-12-17T00:00:34.215Z,23.07
2022-12-17T00:03:01.469Z,23.07
2022-12-17T00:05:28.324Z,23.17
2022-12-17T00:07:58.215Z,25.60
2022-12-17T00:10:26.339Z,26.00
2022-12-17T00:12:53.277Z,28.60
2022-12-17T00:15:23.398Z,25.90
2022-12-17T00:17:50.126Z,26.40
2022-12-17T00:20:16.885Z,27.15
2022-12-17T00:22:43.667Z,21.40
2022-12-17T00:25:10.420Z,20.00
2022-12-17T00:27:38.551Z,19.33
2022-12-17T00:30:06.173Z,24.50
2022-12-17T00:32:32.957Z,22.13
2022-12-17T00:34:59.806Z,22.57
2022-12-17T00:37:26.612Z,19.00
2022-12-17T00:39:58.964Z,23.50
2022-12-17T00:42:26.096Z,24.80
2022-12-17T00:44:54.403Z,25.57
2022-12-17T00:47:21.158Z,25.92
2022-12-17T00:49:47.888Z,25.40
2022-12-17T00:52:14.587Z,26.20
2022-12-17T00:54:41.341Z,23.40
2022-12-17T00:57:08.068Z,21.17
2022-12-17T00:59:35.176Z,22.38
2022-12-17T01:02:03.392Z,26.60
2022-12-17T01:04:30.203Z,24.20
2022-12-17T01:06:56.936Z,24.47
2022-12-17T01:09:23.664Z,27.50
2022-12-17T01:11:50.427Z,21.13
2022-12-17T01:14:17.162Z,20.77
2022-12-17T01:16:44.055Z,18.60
2022-12-17T01:19:12.204Z,18.60
2022-12-17T01:21:39.444Z,23.17
2022-12-17T01:24:06.710Z,26.67
2022-12-17T01:26:33.587Z,22.80
2022-12-17T01:29:00.325Z,19.10
2022-12-17T01:31:31.438Z,19.37
2022-12-17T01:34:01.321Z,17.40
2022-12-17T01:36:29.426Z,18.63
2022-12-17T01:38:56.186Z,18.97
2022-12-17T01:41:22.922Z,21.57
2022-12-17T01:43:49.752Z,18.93
2022-12-17T01:46:17.004Z,16.13
2022-12-17T01:48:47.624Z,15.50
2022-12-17T01:51:15.070Z,17.47
2022-12-17T01:53:47.574Z,17.90
2022-12-17T01:56:15.578Z,16.67
2022-12-17T01:58:42.893Z,19.10
2022-12-17T02:01:09.716Z,20.27
2022-12-17T02:03:36.996Z,15.40
2022-12-17T02:06:11.194Z,14.93
2022-12-17T02:08:44.720Z,18.83
2022-12-17T02:11:22.343Z,18.27
2022-12-17T02:13:57.053Z,19.50
2022-12-17T02:16:30.574Z,24.93
2022-12-17T02:19:05.340Z,25.70
2022-12-17T02:21:35.480Z,19.43
2022-12-17T02:24:08.860Z,21.35
2022-12-17T02:26:39.919Z,25.97
2022-12-17T02:29:08.240Z,26.83
2022-12-17T02:31:36.409Z,25.33
2022-12-17T02:34:03.220Z,26.40
2022-12-17T02:36:29.966Z,19.47
2022-12-17T02:38:56.879Z,25.37
2022-12-17T02:41:27.308Z,27.25
2022-12-17T02:43:56.242Z,28.90
2022-12-17T02:46:23.152Z,26.45
2022-12-17T02:48:50.014Z,31.50
2022-12-17T02:51:16.924Z,30.20
2022-12-17T02:53:45.221Z,31.93
2022-12-17T02:56:11.936Z,30.95
2022-12-17T02:58:38.731Z,26.33
2022-12-17T03:01:07.072Z,33.55
2022-12-17T03:03:34.401Z,22.88
2022-12-17T03:06:01.571Z,34.58
2022-12-17T03:08:28.343Z,33.20
2022-12-17T03:10:55.206Z,27.67
2022-12-17T03:13:23.261Z,21.03
2022-12-17T03:15:50.041Z,28.77
2022-12-17T03:18:18.192Z,36.90
2022-12-17T03:20:44.975Z,31.13
2022-12-17T03:23:12.661Z,36.70
2022-12-17T03:25:39.437Z,35.60
2022-12-17T03:28:07.456Z,21.97
2022-12-17T03:30:36.407Z,21.83
2022-12-17T03:33:03.905Z,36.00
2022-12-17T03:35:31.982Z,36.70
2022-12-17T03:37:58.763Z,27.30
2022-12-17T03:40:25.506Z,35.70
2022-12-17T03:42:52.293Z,23.33
2022-12-17T03:45:19.076Z,15.87
2022-12-17T03:47:45.864Z,16.93
2022-12-17T03:50:12.641Z,21.03
2022-12-17T03:52:40.747Z,20.27
2022-12-17T03:55:08.160Z,29.57
2022-12-17T03:57:34.992Z,18.20
2022-12-17T04:00:01.799Z,22.17
2022-12-17T04:02:28.737Z,16.83
2022-12-17T04:04:55.547Z,26.40
2022-12-17T04:07:22.367Z,20.70
2022-12-17T04:09:50.448Z,19.13
2022-12-17T04:12:17.226Z,15.57
2022-12-17T04:14:44.100Z,23.50
2022-12-17T04:17:10.992Z,19.37
2022-12-17T04:19:37.750Z,26.90
2022-12-17T04:22:05.307Z,25.33
2022-12-17T04:24:32.064Z,30.45
2022-12-17T04:27:00.305Z,26.67
2022-12-17T04:29:27.110Z,24.30
2022-12-17T04:31:53.886Z,17.45
2022-12-17T04:34:20.668Z,28.90
2022-12-17T04:36:47.467Z,22.63
2022-12-17T04:39:14.317Z,15.40
2022-12-17T04:41:41.051Z,19.33
2022-12-17T04:44:09.164Z,19.47
2022-12-17T04:46:36.062Z,21.33
2022-12-17T04:49:02.926Z,15.63
2022-12-17T04:51:29.884Z,26.50
2022-12-17T04:53:56.627Z,24.50
2022-12-17T04:56:23.401Z,21.60
2022-12-17T04:58:50.298Z,26.17
2022-12-17T05:01:18.530Z,28.13
2022-12-17T05:03:45.477Z,26.43
2022-12-17T05:06:12.258Z,18.48
2022-12-17T05:08:41.540Z,14.73
2022-12-17T05:11:08.547Z,17.23
2022-12-17T05:13:35.836Z,26.63
2022-12-17T05:16:03.292Z,25.97
2022-12-17T05:18:31.691Z,26.23
2022-12-17T05:21:00.729Z,24.27
2022-12-17T05:23:27.516Z,17.97
2022-12-17T05:26:03.073Z,24.80
2022-12-17T05:28:30.193Z,17.73
2022-12-17T05:30:59.705Z,20.20
2022-12-17T05:33:26.571Z,15.90
2022-12-17T05:35:54.647Z,17.97
2022-12-17T05:38:21.407Z,15.97
2022-12-17T05:40:48.172Z,26.70
2022-12-17T05:43:14.952Z,19.90
2022-12-17T05:45:42.249Z,18.23
2022-12-17T05:48:09.029Z,17.10
2022-12-17T05:50:35.764Z,16.30
2022-12-17T05:53:04.875Z,16.58
2022-12-17T05:55:31.643Z,16.05
2022-12-17T05:58:02.989Z,19.80
2022-12-17T06:00:29.831Z,16.20
2022-12-17T06:03:00.077Z,14.33
2022-12-17T06:05:26.906Z,19.27
2022-12-17T06:07:53.650Z,21.90
2022-12-17T06:10:21.786Z,23.60
2022-12-17T06:12:55.547Z,24.80
2022-12-17T06:15:24.679Z,18.40
2022-12-17T06:17:54.559Z,18.07
2022-12-17T06:20:21.452Z,22.20
2022-12-17T06:22:58.232Z,20.70
2022-12-17T06:25:26.345Z,21.83
2022-12-17T06:27:58.446Z,15.00
2022-12-17T06:30:25.329Z,18.97
2022-12-17T06:32:52.028Z,17.70
2022-12-17T06:35:18.800Z,17.98
2022-12-17T06:37:45.598Z,16.35
2022-12-17T06:40:12.482Z,18.55
2022-12-17T06:42:40.623Z,19.63
2022-12-17T06:45:08.684Z,16.75
2022-12-17T06:47:35.530Z,17.57
2022-12-17T06:50:02.424Z,15.50
2022-12-17T06:52:29.182Z,17.63
2022-12-17T06:54:56.060Z,18.25
2022-12-17T06:57:22.807Z,19.20
2022-12-17T06:59:50.978Z,17.10
2022-12-17T07:02:17.849Z,18.53
2022-12-17T07:04:44.603Z,22.87
2022-12-17T07:07:11.394Z,24.90
2022-12-17T07:09:38.158Z,16.20
2022-12-17T07:12:05.356Z,19.10
2022-12-17T07:14:34.120Z,18.63
2022-12-17T07:17:02.356Z,20.63
2022-12-17T07:19:31.533Z,21.00
2022-12-17T07:21:58.322Z,22.05
2022-12-17T07:24:25.120Z,21.97
2022-12-17T07:26:51.851Z,19.95
2022-12-17T07:29:18.709Z,20.37
2022-12-17T07:31:50.481Z,13.77
2022-12-17T07:34:19.742Z,20.60
2022-12-17T07:36:46.478Z,21.03
2022-12-17T07:39:13.211Z,21.67
2022-12-17T07:41:40.050Z,18.10
2022-12-17T07:44:06.847Z,19.50
2022-12-17T07:46:36.114Z,19.83
2022-12-17T07:49:02.991Z,19.97
2022-12-17T07:51:31.112Z,25.40
2022-12-17T07:53:57.935Z,19.20
2022-12-17T07:56:24.945Z,21.17
2022-12-17T07:58:51.843Z,22.80
2022-12-17T08:01:18.791Z,17.13
2022-12-17T08:03:46.106Z,20.83
2022-12-17T08:06:12.991Z,16.57
2022-12-17T08:08:41.101Z,16.30
2022-12-17T08:11:07.809Z,16.07
2022-12-17T08:13:35.038Z,22.33
2022-12-17T08:16:02.304Z,15.70
2022-12-17T08:18:29.526Z,16.88
2022-12-17T08:20:56.248Z,18.90
2022-12-17T08:23:25.751Z,18.23
2022-12-17T08:25:55.154Z,19.27
2022-12-17T08:28:49.128Z,22.00
2022-12-17T08:31:08.715Z,18.57
2022-12-17T08:33:35.978Z,20.60
2022-12-17T08:36:05.459Z,27.67
2022-12-17T08:38:35.002Z,28.80
2022-12-17T08:41:03.193Z,31.50
2022-12-17T08:43:33.400Z,25.60
2022-12-17T08:46:00.313Z,27.30
2022-12-17T08:48:30.023Z,24.93
2022-12-17T08:50:56.866Z,26.20
2022-12-17T08:53:29.542Z,18.80
2022-12-17T08:56:00.069Z,16.15
2022-12-17T08:58:28.231Z,21.13
2022-12-17T09:01:01.488Z,19.63
2022-12-17T09:03:28.668Z,25.83
2022-12-17T09:05:55.496Z,23.13
2022-12-17T09:08:22.268Z,19.30
2022-12-17T09:10:49.246Z,18.63
2022-12-17T09:13:16.065Z,22.30
2022-12-17T09:15:44.165Z,26.10
2022-12-17T09:18:10.912Z,19.33
2022-12-17T09:20:37.672Z,19.90
2022-12-17T09:23:04.443Z,20.85
2022-12-17T09:25:31.210Z,20.67
2022-12-17T09:28:00.568Z,21.40
2022-12-17T09:30:27.665Z,21.93
2022-12-17T09:32:55.803Z,28.37
2022-12-17T09:35:22.554Z,26.30
2022-12-17T09:37:52.152Z,28.30
2022-12-17T09:40:24.148Z,25.63
2022-12-17T09:42:59.813Z,22.20
2022-12-17T09:45:36.316Z,24.50
2022-12-17T09:48:10.061Z,28.03
2022-12-17T09:50:37.044Z,30.50
2022-12-17T09:53:17.497Z,27.80
2022-12-17T09:55:47.271Z,25.70
2022-12-17T09:58:22.203Z,24.77
2022-12-17T10:00:50.171Z,31.13
2022-12-17T10:03:20.862Z,29.33
2022-12-17T10:05:49.086Z,22.80
2022-12-17T10:08:18.797Z,24.57
2022-12-17T10:10:47.114Z,25.07
2022-12-17T10:13:16.838Z,19.17
2022-12-17T10:15:43.672Z,24.50
2022-12-17T10:18:12.461Z,23.23
2022-12-17T10:20:45.779Z,23.00
2022-12-17T10:23:23.560Z,24.63
2022-12-17T10:25:52.092Z,22.30
2022-12-17T10:28:21.104Z,28.23
2022-12-17T10:30:48.202Z,28.83
2022-12-17T10:33:18.890Z,27.43
2022-12-17T10:35:47.028Z,26.00
2022-12-17T10:38:21.144Z,20.83
2022-12-17T10:40:47.937Z,32.80
2022-12-17T10:43:29.863Z,30.47
2022-12-17T10:45:57.610Z,27.00
2022-12-17T10:48:26.073Z,29.37
2022-12-17T10:50:54.235Z,31.20
2022-12-17T10:53:23.691Z,34.70
2022-12-17T10:55:53.155Z,29.07
2022-12-17T10:58:22.949Z,28.80
2022-12-17T11:00:50.861Z,32.50
2022-12-17T11:03:30.846Z,31.30
2022-12-17T11:05:59.967Z,25.63
2022-12-17T11:08:29.724Z,24.83
2022-12-17T11:10:57.098Z,23.43
2022-12-17T11:13:29.181Z,22.50
2022-12-17T11:15:58.730Z,24.70
2022-12-17T11:18:30.318Z,28.50
2022-12-17T11:21:04.373Z,23.10
2022-12-17T11:23:32.787Z,28.57
2022-12-17T11:26:05.826Z,24.00
2022-12-17T11:28:34.884Z,31.27
2022-12-17T11:31:26.816Z,26.37
2022-12-17T11:33:58.220Z,29.50
2022-12-17T11:36:38.458Z,31.00
2022-12-17T11:39:14.307Z,26.47
2022-12-17T11:41:53.484Z,30.20
2022-12-17T11:44:30.896Z,35.70
2022-12-17T11:47:10.287Z,30.80
2022-12-17T11:49:45.339Z,29.90
2022-12-17T11:52:20.876Z,30.90
2022-12-17T11:54:57.392Z,24.90
2022-12-17T11:57:33.001Z,21.27
2022-12-17T12:00:04.723Z,28.97
2022-12-17T12:02:45.082Z,30.67
2022-12-17T12:05:22.752Z,32.70
2022-12-17T12:08:00.167Z,31.80
2022-12-17T12:10:36.156Z,30.17
2022-12-17T12:13:17.132Z,29.37
2022-12-17T12:15:54.535Z,33.70
2022-12-17T12:18:30.119Z,31.57
2022-12-17T12:21:28.431Z,29.57
2022-12-17T12:24:09.431Z,31.37
2022-12-17T12:26:45.226Z,25.73
2022-12-17T12:29:27.572Z,23.67
2022-12-17T12:32:05.230Z,25.20
2022-12-17T12:34:36.550Z,30.57
2022-12-17T12:37:06.335Z,26.67
2022-12-17T12:39:39.048Z,28.57
2022-12-17T12:42:13.701Z,29.70
2022-12-17T12:44:49.926Z,27.90
2022-12-17T12:47:23.254Z,26.83
2022-12-17T12:50:00.720Z,29.10
2022-12-17T12:52:29.001Z,28.50
2022-12-17T12:54:57.216Z,27.77
2022-12-17T12:57:33.802Z,34.00
2022-12-17T13:00:00.864Z,27.10
2022-12-17T13:02:30.364Z,25.07
2022-12-17T13:04:57.778Z,26.07
2022-12-17T13:07:27.173Z,28.30
2022-12-17T13:09:55.850Z,24.73
2022-12-17T13:12:33.175Z,27.87
2022-12-17T13:15:44.133Z,32.90
2022-12-17T13:18:28.819Z,31.83
2022-12-17T13:21:01.249Z,25.20
2022-12-17T13:23:31.633Z,30.17
2022-12-17T13:26:15.949Z,23.63
2022-12-17T13:28:58.986Z,25.20
2022-12-17T13:31:27.762Z,24.10
2022-12-17T13:34:04.890Z,25.50
2022-12-17T13:36:44.947Z,23.50
2022-12-17T13:39:27.436Z,23.37
2022-12-17T13:42:00.106Z,23.87
2022-12-17T13:47:56.907Z,24.10
2022-12-17T13:50:34.826Z,27.47
2022-12-17T13:53:33.949Z,28.77
2022-12-17T13:56:12.404Z,24.00
2022-12-17T13:58:41.009Z,21.17
2022-12-17T14:01:09.571Z,22.30
2022-12-17T14:04:14.747Z,25.53
2022-12-17T14:07:11.291Z,24.47
2022-12-17T14:09:43.002Z,28.70
2022-12-17T14:12:12.784Z,27.93
2022-12-17T14:14:42.356Z,24.40
2022-12-17T14:17:17.329Z,25.30
2022-12-17T14:19:46.151Z,23.60
2022-12-17T14:22:19.630Z,23.17
2022-12-17T14:24:46.697Z,24.40
2022-12-17T14:27:26.408Z,24.60
2022-12-17T14:29:53.432Z,19.90
2022-12-17T14:32:30.295Z,28.00
2022-12-17T14:35:00.814Z,21.63
2022-12-17T14:37:34.789Z,30.87
2022-12-17T14:40:05.127Z,19.20
2022-12-17T14:42:36.542Z,18.33
2022-12-17T14:45:07.008Z,22.70
2022-12-17T14:47:35.542Z,20.67
2022-12-17T14:50:07.977Z,19.00
2022-12-17T14:52:40.834Z,21.23
2022-12-17T14:55:29.271Z,27.83
2022-12-17T14:58:08.566Z,16.20
2022-12-17T15:00:37.201Z,22.03
2022-12-17T15:03:04.389Z,22.87
2022-12-17T15:05:32.788Z,23.30
2022-12-17T15:08:02.520Z,25.77
2022-12-17T15:10:29.366Z,21.60
2022-12-17T15:12:57.362Z,22.10
2022-12-17T15:20:50.533Z,25.80
2022-12-17T15:23:19.096Z,24.57
2022-12-17T15:25:47.389Z,27.77
2022-12-17T15:28:14.589Z,24.65
2022-12-17T15:30:41.399Z,25.90
2022-12-17T15:33:09.842Z,23.33
2022-12-17T15:35:37.648Z,22.60
2022-12-17T15:38:06.634Z,23.00
2022-12-17T15:40:35.614Z,23.37
2022-12-17T15:43:06.127Z,23.17
2022-12-17T15:45:33.563Z,23.30
2022-12-17T15:48:00.355Z,26.60
2022-12-17T15:50:27.162Z,24.67
2022-12-17T15:52:54.022Z,31.70
2022-12-17T15:55:22.173Z,19.47
2022-12-17T15:57:48.893Z,23.70
2022-12-17T16:00:16.217Z,25.20
2022-12-17T16:02:42.995Z,25.47
2022-12-17T16:05:10.112Z,26.97
2022-12-17T16:07:36.810Z,23.20
2022-12-17T16:10:05.573Z,23.10
2022-12-17T16:12:33.964Z,31.23
2022-12-17T16:15:01.477Z,32.17
2022-12-17T16:17:29.245Z,34.40
2022-12-17T16:19:56.023Z,24.53
2022-12-17T16:22:22.759Z,30.00
2022-12-17T16:24:49.608Z,23.00
2022-12-17T16:27:16.330Z,30.30
2022-12-17T16:29:44.539Z,29.67
2022-12-17T16:32:11.513Z,32.63
2022-12-17T16:34:38.241Z,26.73
2022-12-17T16:37:05.002Z,22.00
2022-12-17T16:39:31.722Z,21.05
2022-12-17T16:41:58.455Z,21.58
2022-12-17T16:44:25.204Z,21.80
2022-12-17T16:46:53.420Z,22.10
2022-12-17T16:49:22.638Z,16.37
2022-12-17T16:51:50.580Z,19.58
2022-12-17T16:54:18.977Z,24.80
2022-12-17T16:56:46.430Z,22.83
2022-12-17T16:59:14.509Z,23.27
2022-12-17T17:01:44.708Z,25.33
2022-12-17T17:04:14.636Z,22.93
2022-12-17T17:06:42.829Z,23.23
2022-12-17T17:09:09.761Z,21.07
2022-12-17T17:11:36.975Z,19.90
2022-12-17T17:14:04.695Z,19.77
2022-12-17T17:16:31.588Z,22.93
2022-12-17T17:18:58.515Z,19.65
2022-12-17T17:21:29.107Z,18.67
2022-12-17T17:23:57.824Z,15.70
2022-12-17T17:26:25.932Z,10.00
2022-12-17T17:28:53.010Z,19.03
2022-12-17T17:31:21.821Z,14.60
2022-12-17T17:33:50.954Z,17.00
2022-12-17T17:36:19.544Z,20.00
2022-12-17T17:38:48.920Z,15.50
2022-12-17T17:41:18.080Z,15.47
2022-12-17T17:43:45.132Z,24.47
2022-12-17T17:46:14.227Z,21.50
2022-12-17T17:48:41.824Z,18.40
2022-12-17T17:51:11.791Z,18.70
2022-12-17T17:53:38.807Z,19.60
2022-12-17T17:56:09.846Z,24.10
2022-12-17T17:58:36.920Z,19.83
2022-12-17T18:01:08.507Z,16.97
2022-12-17T18:03:35.450Z,11.83
2022-12-17T18:06:02.921Z,16.10
2022-12-17T18:08:30.351Z,20.17
2022-12-17T18:10:57.568Z,24.00
2022-12-17T18:13:25.839Z,20.90
2022-12-17T18:15:52.699Z,25.60
2022-12-17T18:18:19.501Z,22.07
2022-12-17T18:20:46.217Z,24.60
2022-12-17T18:23:12.994Z,17.60
2022-12-17T18:25:39.765Z,17.00
2022-12-17T18:28:06.523Z,19.98
2022-12-17T18:30:38.116Z,22.08
2022-12-17T18:33:04.885Z,20.83
2022-12-17T18:35:31.683Z,22.30
2022-12-17T18:37:58.425Z,18.13
2022-12-17T18:40:30.131Z,18.70
2022-12-17T18:42:59.788Z,22.67
2022-12-17T18:45:26.519Z,23.70
2022-12-17T18:47:54.590Z,16.73
2022-12-17T18:50:21.395Z,13.80
2022-12-17T18:52:48.201Z,17.90
2022-12-17T18:55:14.997Z,19.13
2022-12-17T18:57:41.788Z,20.83
2022-12-17T19:00:10.239Z,21.03
2022-12-17T19:02:37.181Z,20.87
2022-12-17T19:05:05.913Z,20.10
2022-12-17T19:07:32.643Z,21.67
2022-12-17T19:09:59.404Z,19.90
2022-12-17T19:12:28.486Z,18.35
2022-12-17T19:14:55.219Z,22.13
2022-12-17T19:17:22.007Z,19.20
2022-12-17T19:19:48.822Z,17.20
2022-12-17T19:22:16.963Z,17.47
2022-12-17T19:24:43.786Z,21.58
2022-12-17T19:27:10.502Z,22.60
2022-12-17T19:29:37.645Z,20.60
2022-12-17T19:32:04.760Z,24.10
2022-12-17T19:34:31.613Z,22.80
2022-12-17T19:36:58.323Z,17.17
2022-12-17T19:39:26.631Z,16.45
2022-12-17T19:41:53.418Z,21.53
2022-12-17T19:44:20.209Z,21.80
2022-12-17T19:46:47.512Z,18.40
2022-12-17T19:49:15.372Z,17.42
2022-12-17T19:51:42.598Z,23.38
2022-12-17T19:54:09.659Z,17.80
2022-12-17T19:56:38.071Z,17.60
2022-12-17T19:59:06.975Z,21.25
2022-12-17T20:01:36.387Z,20.52
2022-12-17T20:04:04.037Z,23.27
2022-12-17T20:06:32.654Z,19.13
2022-12-17T20:09:00.770Z,20.47
2022-12-17T20:11:27.556Z,18.10
2022-12-17T20:13:56.980Z,20.47
2022-12-17T20:16:23.962Z,19.65
2022-12-17T20:18:50.850Z,20.35
2022-12-17T20:21:17.992Z,21.27
2022-12-17T20:23:46.127Z,23.48
2022-12-17T20:26:12.988Z,19.30
2022-12-17T20:28:40.255Z,17.88
2022-12-17T20:31:08.950Z,21.70
2022-12-17T20:33:35.820Z,17.50
2022-12-17T20:36:04.207Z,17.10
2022-12-17T20:38:31.050Z,20.77
2022-12-17T20:40:58.034Z,18.70
2022-12-17T20:43:24.857Z,15.85
2022-12-17T20:45:53.083Z,18.07
2022-12-17T20:48:21.606Z,18.60
2022-12-17T20:50:48.844Z,18.80
2022-12-17T20:53:15.781Z,20.20
2022-12-17T20:55:42.867Z,18.60
2022-12-17T20:58:09.732Z,15.77
2022-12-17T21:00:39.819Z,15.57
2022-12-17T21:03:06.908Z,16.73
2022-12-17T21:05:36.231Z,17.73
2022-12-17T21:08:03.153Z,20.20
2022-12-17T21:10:29.902Z,17.63
2022-12-17T21:12:56.695Z,20.37
2022-12-17T21:15:23.499Z,16.20
2022-12-17T21:17:50.228Z,19.13
2022-12-17T21:20:17.067Z,18.33
2022-12-17T21:22:45.538Z,16.20
2022-12-17T21:25:12.272Z,21.08
2022-12-17T21:27:39.020Z,19.65
2022-12-17T21:30:08.978Z,18.38
2022-12-17T21:32:38.810Z,21.35
2022-12-17T21:35:06.304Z,19.42
2022-12-17T21:37:33.054Z,17.83
2022-12-17T21:40:01.161Z,16.67
2022-12-17T21:42:27.985Z,13.00
2022-12-17T21:44:54.723Z,17.33
2022-12-17T21:47:28.729Z,19.52
2022-12-17T21:49:55.505Z,16.20
2022-12-17T21:52:22.270Z,19.50
2022-12-17T21:54:49.076Z,15.60
2022-12-17T21:57:17.168Z,15.77
2022-12-17T21:59:43.949Z,17.98
2022-12-17T22:02:11.055Z,13.27
2022-12-17T22:04:38.216Z,14.43
2022-12-17T22:07:07.465Z,16.15
2022-12-17T22:09:52.853Z,13.52
2022-12-17T22:12:27.167Z,14.50
2022-12-17T22:14:53.959Z,19.63
2022-12-17T22:17:21.301Z,15.77
2022-12-17T22:19:48.161Z,10.80
2022-12-17T22:22:14.881Z,15.05
2022-12-17T22:24:41.648Z,14.82
2022-12-17T22:27:09.754Z,14.50
2022-12-17T22:29:38.052Z,14.13
2022-12-17T22:32:10.009Z,12.73
2022-12-17T22:35:43.897Z,10.55
2022-12-17T22:40:41.809Z,17.08
2022-12-17T22:44:31.973Z,12.75
2022-12-17T22:44:43.581Z,21.00
2022-12-17T22:45:47.428Z,14.75
2022-12-17T22:48:14.836Z,15.77
2022-12-17T22:50:47.403Z,18.30
2022-12-17T22:53:26.198Z,17.13
2022-12-17T22:55:53.616Z,19.13
2022-12-17T22:58:21.281Z,14.57
2022-12-17T23:00:49.427Z,15.85
2022-12-17T23:03:16.974Z,16.60
2022-12-17T23:05:43.812Z,15.88
2022-12-17T23:08:10.559Z,18.45
2022-12-17T23:10:37.335Z,17.35
2022-12-17T23:13:04.066Z,17.63
2022-12-17T23:15:34.448Z,15.32
2022-12-17T23:18:07.228Z,13.93
2022-12-17T23:20:35.721Z,9.90
2022-12-17T23:23:03.513Z,15.85
2022-12-17T23:25:30.572Z,16.35
2022-12-17T23:27:57.354Z,8.68
2022-12-17T23:30:24.144Z,17.10
2022-12-17T23:32:50.961Z,17.08
2022-12-17T23:35:19.115Z,17.52
2022-12-17T23:37:45.855Z,15.18
2022-12-17T23:40:13.871Z,16.42
2022-12-17T23:42:40.801Z,15.27
2022-12-17T23:45:08.833Z,13.70
2022-12-17T23:47:35.719Z,14.68
2022-12-17T23:50:02.512Z,19.63
2022-12-17T23:52:30.661Z,11.60
2022-12-17T23:54:57.479Z,12.20
2022-12-17T23:57:24.291Z,19.20
2022-12-17T23:59:51.041Z,14.63
